createdAt,value
2017-06-14T00:01:09.153Z,8
2017-06-14T00:02:27.805Z,8
2017-06-14T00:03:46.471Z,8
2017-06-14T00:05:05.131Z,8
2017-06-14T00:06:23.823Z,8
2017-06-14T00:07:42.518Z,8
2017-06-14T00:09:01.168Z,8
2017-06-14T00:10:19.838Z,7.9
2017-06-14T00:11:38.558Z,7.9
2017-06-14T00:12:57.232Z,7.9
2017-06-14T00:14:15.891Z,7.8
2017-06-14T00:15:34.554Z,7.8
2017-06-14T00:16:53.258Z,7.8
2017-06-14T00:18:11.911Z,7.8
2017-06-14T00:19:30.596Z,7.8
2017-06-14T00:20:49.290Z,7.8
2017-06-14T00:22:07.965Z,7.8
2017-06-14T00:23:26.640Z,7.8
2017-06-14T00:24:45.299Z,7.8
2017-06-14T00:26:03.981Z,7.8
2017-06-14T00:27:22.659Z,7.9
2017-06-14T00:28:41.309Z,7.9
2017-06-14T00:30:00.009Z,8
2017-06-14T00:31:18.665Z,8
2017-06-14T00:32:37.390Z,8
2017-06-14T00:33:56.045Z,8
2017-06-14T00:35:14.695Z,8
2017-06-14T00:36:33.366Z,8
2017-06-14T00:37:52.026Z,8
2017-06-14T00:39:10.707Z,8
2017-06-14T00:40:29.356Z,8
2017-06-14T00:41:48.045Z,7.9
2017-06-14T00:43:06.761Z,7.9
2017-06-14T00:44:25.414Z,7.8
2017-06-14T00:45:44.117Z,7.8
2017-06-14T00:47:02.766Z,7.8
2017-06-14T00:48:21.448Z,7.7
2017-06-14T00:49:40.096Z,7.7
2017-06-14T00:50:58.752Z,7.7
2017-06-14T00:52:17.423Z,7.7
2017-06-14T00:53:36.108Z,7.7
2017-06-14T00:54:54.790Z,7.7
2017-06-14T00:56:13.488Z,7.7
2017-06-14T00:57:32.188Z,7.7
2017-06-14T00:58:50.850Z,7.8
2017-06-14T01:00:09.541Z,7.7
2017-06-14T01:01:28.201Z,7.7
2017-06-14T01:02:46.841Z,7.7
2017-06-14T01:04:05.572Z,7.8
2017-06-14T01:05:24.216Z,7.7
2017-06-14T01:06:42.860Z,7.7
2017-06-14T01:08:01.535Z,7.7
2017-06-14T01:09:20.246Z,7.7
2017-06-14T01:10:38.921Z,7.6
2017-06-14T01:11:57.560Z,7.7
2017-06-14T01:13:16.208Z,7.6
2017-06-14T01:14:34.885Z,7.6
2017-06-14T01:15:53.529Z,7.6
2017-06-14T01:17:12.216Z,7.6
2017-06-14T01:18:30.859Z,7.6
2017-06-14T01:19:49.536Z,7.6
2017-06-14T01:21:08.176Z,7.6
2017-06-14T01:22:26.821Z,7.5
2017-06-14T01:23:45.464Z,7.5
2017-06-14T01:25:04.146Z,7.5
2017-06-14T01:26:22.871Z,7.4
2017-06-14T01:27:41.537Z,7.4
2017-06-14T01:29:00.189Z,7.4
2017-06-14T01:30:18.925Z,7.4
2017-06-14T01:31:37.563Z,7.4
2017-06-14T01:32:56.258Z,7.4
2017-06-14T01:34:14.904Z,7.4
2017-06-14T01:35:33.571Z,7.3
2017-06-14T01:36:52.213Z,7.3
2017-06-14T01:38:10.875Z,7.3
2017-06-14T01:39:29.541Z,7.3
2017-06-14T01:40:48.215Z,7.3
2017-06-14T01:42:06.907Z,7.2
2017-06-14T01:43:25.547Z,7.2
2017-06-14T01:44:44.244Z,7.2
2017-06-14T01:46:02.899Z,7.2
2017-06-14T01:47:21.542Z,7.2
2017-06-14T01:48:40.229Z,7.2
2017-06-14T01:49:58.905Z,7.3
2017-06-14T01:51:17.555Z,7.3
2017-06-14T01:52:36.202Z,7.3
2017-06-14T01:53:54.843Z,7.3
2017-06-14T01:55:13.530Z,7.3
2017-06-14T01:56:32.203Z,7.3
2017-06-14T01:57:50.868Z,7.3
2017-06-14T01:59:09.534Z,7.3
2017-06-14T02:00:28.173Z,7.2
2017-06-14T02:01:46.819Z,7.2
2017-06-14T02:03:05.495Z,7.2
2017-06-14T02:04:24.146Z,7.2
2017-06-14T02:05:42.834Z,7.1
2017-06-14T02:07:01.552Z,7.1
2017-06-14T02:08:20.228Z,7.1
2017-06-14T02:09:38.889Z,7.1
2017-06-14T02:10:57.534Z,7.1
2017-06-14T02:12:16.199Z,7.1
2017-06-14T02:13:34.906Z,7.2
2017-06-14T02:14:53.604Z,7.2
2017-06-14T02:16:12.302Z,7.2
2017-06-14T02:17:30.972Z,7.2
2017-06-14T02:18:49.615Z,7.2
2017-06-14T02:20:08.304Z,7.2
2017-06-14T02:21:26.948Z,7.1
2017-06-14T02:22:45.669Z,7.1
2017-06-14T02:24:04.318Z,7.1
2017-06-14T02:25:22.972Z,7.1
2017-06-14T02:26:41.654Z,7
2017-06-14T02:28:00.319Z,7
2017-06-14T02:29:19.013Z,6.9
2017-06-14T02:30:37.665Z,6.9
2017-06-14T02:31:56.312Z,6.9
2017-06-14T02:33:14.976Z,6.9
2017-06-14T02:34:33.658Z,6.9
2017-06-14T02:35:52.379Z,7
2017-06-14T02:37:11.055Z,7
2017-06-14T02:38:29.710Z,7
2017-06-14T02:39:48.390Z,7
2017-06-14T02:41:07.028Z,7
2017-06-14T02:42:25.667Z,7
2017-06-14T02:43:44.333Z,7.1
2017-06-14T02:45:02.991Z,7.1
2017-06-14T02:46:21.633Z,7.1
2017-06-14T02:47:40.312Z,7.1
2017-06-14T02:48:58.991Z,7
2017-06-14T02:50:17.635Z,6.9
2017-06-14T02:51:36.306Z,6.9
2017-06-14T02:52:54.946Z,7
2017-06-14T02:54:13.616Z,7
2017-06-14T02:55:32.314Z,7
2017-06-14T02:56:50.965Z,6.9
2017-06-14T02:58:09.619Z,6.9
2017-06-14T02:59:28.312Z,6.9
2017-06-14T03:00:46.993Z,6.9
2017-06-14T03:02:05.647Z,6.9
2017-06-14T03:03:24.302Z,6.9
2017-06-14T03:04:42.972Z,6.9
2017-06-14T03:06:01.607Z,6.8
2017-06-14T03:07:20.302Z,6.8
2017-06-14T03:08:38.978Z,6.8
2017-06-14T03:09:57.627Z,6.8
2017-06-14T03:11:16.306Z,6.9
2017-06-14T03:12:34.987Z,6.9
2017-06-14T03:13:53.630Z,6.9
2017-06-14T03:15:12.351Z,6.9
2017-06-14T03:16:31.024Z,6.9
2017-06-14T03:17:49.664Z,6.9
2017-06-14T03:19:08.304Z,6.8
2017-06-14T03:20:26.953Z,6.8
2017-06-14T03:21:45.593Z,6.9
2017-06-14T03:23:04.232Z,6.9
2017-06-14T03:24:22.902Z,7
2017-06-14T03:25:41.571Z,7
2017-06-14T03:27:00.216Z,7
2017-06-14T03:28:18.881Z,7.1
2017-06-14T03:29:37.534Z,7.1
2017-06-14T03:30:56.187Z,7.2
2017-06-14T03:32:14.867Z,7.2
2017-06-14T03:33:33.530Z,7.2
2017-06-14T03:34:52.190Z,7.3
2017-06-14T03:36:10.882Z,7.3
2017-06-14T03:37:29.537Z,7.4
2017-06-14T03:38:48.183Z,7.4
2017-06-14T03:40:06.873Z,7.4
2017-06-14T03:41:25.533Z,7.5
2017-06-14T03:42:44.177Z,7.5
2017-06-14T03:44:02.816Z,7.5
2017-06-14T03:45:21.465Z,7.6
2017-06-14T03:46:40.137Z,7.6
2017-06-14T03:47:58.809Z,7.7
2017-06-14T03:49:17.499Z,7.8
2017-06-14T03:50:36.197Z,7.8
2017-06-14T03:51:54.849Z,7.9
2017-06-14T03:53:13.536Z,7.9
2017-06-14T03:54:32.180Z,8
2017-06-14T03:55:50.821Z,8
2017-06-14T03:57:09.482Z,8
2017-06-14T03:58:28.144Z,8.1
2017-06-14T03:59:46.789Z,8.1
2017-06-14T04:01:05.435Z,8.1
2017-06-14T04:02:24.115Z,8.2
2017-06-14T04:03:42.784Z,8.2
2017-06-14T04:05:01.431Z,8.2
2017-06-14T04:06:20.110Z,8.2
2017-06-14T04:07:38.775Z,8.2
2017-06-14T04:08:57.444Z,8.3
2017-06-14T04:10:16.086Z,8.3
2017-06-14T04:11:34.761Z,8.4
2017-06-14T04:12:53.407Z,8.5
2017-06-14T04:14:12.049Z,8.5
2017-06-14T04:15:30.692Z,8.6
2017-06-14T04:16:49.376Z,8.6
2017-06-14T04:18:08.053Z,8.7
2017-06-14T04:19:26.713Z,8.8
2017-06-14T04:20:45.359Z,8.8
2017-06-14T04:22:04.033Z,8.8
2017-06-14T04:23:22.717Z,8.9
2017-06-14T04:24:41.380Z,8.9
2017-06-14T04:26:00.021Z,9
2017-06-14T04:27:18.661Z,9
2017-06-14T04:28:37.394Z,9.1
2017-06-14T04:29:56.060Z,9.1
2017-06-14T04:31:14.741Z,9.2
2017-06-14T04:32:33.436Z,9.2
2017-06-14T04:33:52.113Z,9.3
2017-06-14T04:35:10.801Z,9.3
2017-06-14T04:36:29.445Z,9.4
2017-06-14T04:37:48.133Z,9.4
2017-06-14T04:39:06.784Z,9.5
2017-06-14T04:40:25.427Z,9.6
2017-06-14T04:41:44.101Z,9.6
2017-06-14T04:43:02.746Z,9.7
2017-06-14T04:44:21.441Z,9.7
2017-06-14T04:45:40.125Z,9.8
2017-06-14T04:46:58.780Z,9.8
2017-06-14T04:48:17.426Z,9.9
2017-06-14T04:49:36.121Z,9.9
2017-06-14T04:50:54.801Z,10
2017-06-14T04:52:13.503Z,10.1
2017-06-14T04:53:32.171Z,10.1
2017-06-14T04:54:50.914Z,10.2
2017-06-14T04:56:09.578Z,10.3
2017-06-14T04:57:28.244Z,10.3
2017-06-14T04:58:46.910Z,10.4
2017-06-14T05:00:05.583Z,10.4
2017-06-14T05:01:24.265Z,10.5
2017-06-14T05:02:42.929Z,10.6
2017-06-14T05:04:01.609Z,10.7
2017-06-14T05:05:20.345Z,10.7
2017-06-14T05:06:39.041Z,10.8
2017-06-14T05:07:57.745Z,10.8
2017-06-14T05:09:16.423Z,10.9
2017-06-14T05:10:35.118Z,11
2017-06-14T05:11:53.789Z,11
2017-06-14T05:13:12.456Z,11
2017-06-14T05:14:31.129Z,11.1
2017-06-14T05:15:49.811Z,11.2
2017-06-14T05:17:08.474Z,11.3
2017-06-14T05:18:27.132Z,11.3
2017-06-14T05:19:45.795Z,11.3
2017-06-14T05:21:04.464Z,11.4
2017-06-14T05:22:23.153Z,11.4
2017-06-14T05:23:41.869Z,11.5
2017-06-14T05:25:00.572Z,11.6
2017-06-14T05:26:19.288Z,11.7
2017-06-14T05:27:37.974Z,11.8
2017-06-14T05:28:56.638Z,11.8
2017-06-14T05:30:15.317Z,11.9
2017-06-14T05:31:34.028Z,11.9
2017-06-14T05:32:52.685Z,12
2017-06-14T05:34:11.336Z,12.1
2017-06-14T05:35:30.025Z,12.1
2017-06-14T05:36:48.703Z,12.2
2017-06-14T05:38:07.467Z,12.2
2017-06-14T05:39:26.133Z,12.3
2017-06-14T05:40:44.787Z,12.4
2017-06-14T05:42:03.450Z,12.5
2017-06-14T05:43:22.113Z,12.5
2017-06-14T05:44:40.823Z,12.6
2017-06-14T05:45:59.483Z,12.7
2017-06-14T05:47:18.166Z,12.7
2017-06-14T05:48:36.830Z,12.8
2017-06-14T05:49:55.487Z,12.9
2017-06-14T05:51:14.177Z,12.9
2017-06-14T05:52:32.855Z,13
2017-06-14T05:53:51.562Z,13
2017-06-14T05:55:10.223Z,13.1
2017-06-14T05:56:28.906Z,13.2
2017-06-14T05:57:47.608Z,13.2
2017-06-14T05:59:06.277Z,13.3
2017-06-14T06:00:24.987Z,13.4
2017-06-14T06:01:43.655Z,13.5
2017-06-14T06:03:02.408Z,13.6
2017-06-14T06:04:21.133Z,13.6
2017-06-14T06:05:39.838Z,13.6
2017-06-14T06:06:58.559Z,13.7
2017-06-14T06:08:17.327Z,13.7
2017-06-14T06:09:36.022Z,13.7
2017-06-14T06:10:54.692Z,13.8
2017-06-14T06:12:13.359Z,13.8
2017-06-14T06:13:32.060Z,13.9
2017-06-14T06:14:50.729Z,14
2017-06-14T06:16:09.439Z,14.1
2017-06-14T06:17:28.112Z,14.1
2017-06-14T06:18:46.846Z,14.2
2017-06-14T06:20:05.572Z,14.2
2017-06-14T06:21:24.298Z,14.3
2017-06-14T06:22:42.974Z,14.3
2017-06-14T06:24:01.654Z,14.4
2017-06-14T06:25:20.398Z,14.4
2017-06-14T06:26:39.098Z,14.5
2017-06-14T06:27:57.767Z,14.5
2017-06-14T06:29:16.503Z,14.6
2017-06-14T06:30:35.168Z,14.7
2017-06-14T06:31:53.912Z,14.8
2017-06-14T06:33:12.593Z,14.9
2017-06-14T06:34:31.261Z,14.9
2017-06-14T06:35:49.980Z,15
2017-06-14T06:37:08.661Z,15
2017-06-14T06:38:27.420Z,15.1
2017-06-14T06:39:46.101Z,15.1
2017-06-14T06:41:04.799Z,15.2
2017-06-14T06:42:23.470Z,15.3
2017-06-14T06:43:42.134Z,15.3
2017-06-14T06:45:00.807Z,15.3
2017-06-14T06:46:19.475Z,15.4
2017-06-14T06:47:38.148Z,15.5
2017-06-14T06:48:56.818Z,15.6
2017-06-14T06:50:15.515Z,15.7
2017-06-14T06:51:34.219Z,15.8
2017-06-14T06:52:52.904Z,16
2017-06-14T06:54:11.570Z,16.1
2017-06-14T06:55:30.271Z,16.3
2017-06-14T06:56:48.997Z,16.4
2017-06-14T06:58:07.715Z,16.6
2017-06-14T06:59:26.390Z,16.7
2017-06-14T07:00:45.077Z,17
2017-06-14T07:02:03.762Z,17.1
2017-06-14T07:03:22.467Z,17.4
2017-06-14T07:04:41.139Z,17.5
2017-06-14T07:05:59.876Z,17.7
2017-06-14T07:07:18.566Z,17.7
2017-06-14T07:08:37.238Z,17.7
2017-06-14T07:09:55.904Z,17.9
2017-06-14T07:11:14.572Z,17.9
2017-06-14T07:12:33.264Z,18
2017-06-14T07:13:51.981Z,18.1
2017-06-14T07:15:10.657Z,18.2
2017-06-14T07:16:29.369Z,18.2
2017-06-14T07:17:48.092Z,18.1
2017-06-14T07:19:06.761Z,18
2017-06-14T07:20:25.439Z,18
2017-06-14T07:21:44.142Z,18
2017-06-14T07:23:02.831Z,18
2017-06-14T07:24:21.500Z,18
2017-06-14T07:25:40.167Z,18
2017-06-14T07:26:58.883Z,17.9
2017-06-14T07:28:17.593Z,18
2017-06-14T07:29:36.270Z,18
2017-06-14T07:30:54.988Z,18
2017-06-14T07:32:13.661Z,18.1
2017-06-14T07:33:32.399Z,18.3
2017-06-14T07:34:51.074Z,18.4
2017-06-14T07:36:09.743Z,18.4
2017-06-14T07:37:28.439Z,18.6
2017-06-14T07:38:47.169Z,18.8
2017-06-14T07:40:05.840Z,19.1
2017-06-14T07:41:24.562Z,19.2
2017-06-14T07:42:43.305Z,19.2
2017-06-14T07:44:02.038Z,19.1
2017-06-14T07:45:20.712Z,18.9
2017-06-14T07:46:39.377Z,18.8
2017-06-14T07:47:58.072Z,18.8
2017-06-14T07:49:16.748Z,18.7
2017-06-14T07:50:35.452Z,18.7
2017-06-14T07:51:54.178Z,18.8
2017-06-14T07:53:12.876Z,18.8
2017-06-14T07:54:31.573Z,19
2017-06-14T07:55:50.245Z,19.1
2017-06-14T07:57:08.981Z,19.3
2017-06-14T07:58:27.682Z,19.3
2017-06-14T07:59:46.402Z,19.3
2017-06-14T08:01:05.068Z,19.4
2017-06-14T08:02:23.800Z,19.6
2017-06-14T08:03:42.472Z,19.8
2017-06-14T08:05:01.144Z,20
2017-06-14T08:06:19.811Z,20.2
2017-06-14T08:07:38.485Z,20.3
2017-06-14T08:08:57.237Z,20.3
2017-06-14T08:10:15.917Z,20.4
2017-06-14T08:11:34.642Z,20.4
2017-06-14T08:12:53.365Z,20.5
2017-06-14T08:14:12.070Z,20.4
2017-06-14T08:15:30.771Z,20.4
2017-06-14T08:16:49.438Z,20.5
2017-06-14T08:18:08.107Z,20.5
2017-06-14T08:19:26.776Z,20.3
2017-06-14T08:20:45.457Z,20
2017-06-14T08:22:04.141Z,19.7
2017-06-14T08:23:22.852Z,19.4
2017-06-14T08:24:41.601Z,19.2
2017-06-14T08:26:00.333Z,19
2017-06-14T08:27:19.030Z,18.9
2017-06-14T08:28:37.758Z,18.9
2017-06-14T08:29:56.459Z,18.8
2017-06-14T08:31:15.162Z,18.7
2017-06-14T08:32:33.854Z,18.6
2017-06-14T08:33:52.567Z,18.8
2017-06-14T08:35:11.251Z,19.1
2017-06-14T08:36:29.932Z,19.4
2017-06-14T08:37:48.593Z,19.6
2017-06-14T08:39:07.315Z,19.6
2017-06-14T08:40:26.020Z,19.8
2017-06-14T08:41:44.690Z,19.4
2017-06-14T08:43:03.355Z,19
2017-06-14T08:44:22.021Z,18.9
2017-06-14T08:45:40.694Z,18.7
2017-06-14T08:46:59.447Z,18.5
2017-06-14T08:48:18.148Z,18.5
2017-06-14T08:49:36.815Z,18.9
2017-06-14T08:50:55.490Z,19.2
2017-06-14T08:52:14.170Z,19.4
2017-06-14T08:53:32.842Z,19.6
2017-06-14T08:54:51.590Z,19.5
2017-06-14T08:56:10.347Z,19.5
2017-06-14T08:57:29.052Z,19.6
2017-06-14T08:58:47.721Z,19.7
2017-06-14T09:00:06.393Z,19.8
2017-06-14T09:01:25.071Z,19.9
2017-06-14T09:02:43.793Z,20.1
2017-06-14T09:04:02.463Z,20.1
2017-06-14T09:05:21.144Z,20.1
2017-06-14T09:06:39.837Z,20.1
2017-06-14T09:07:58.557Z,20
2017-06-14T09:09:17.241Z,19.9
2017-06-14T09:10:35.913Z,19.9
2017-06-14T09:11:54.593Z,19.9
2017-06-14T09:13:13.317Z,19.9
2017-06-14T09:14:31.980Z,20
2017-06-14T09:15:50.652Z,20
2017-06-14T09:17:09.349Z,19.9
2017-06-14T09:18:28.044Z,19.8
2017-06-14T09:19:46.746Z,19.7
2017-06-14T09:21:05.418Z,19.6
2017-06-14T09:22:24.118Z,19.6
2017-06-14T09:23:42.796Z,19.6
2017-06-14T09:25:01.482Z,19.7
2017-06-14T09:26:20.167Z,19.8
2017-06-14T09:27:38.925Z,20
2017-06-14T09:28:57.649Z,20.2
2017-06-14T09:30:16.343Z,20.3
2017-06-14T09:31:35.006Z,20.6
2017-06-14T09:32:53.739Z,20.8
2017-06-14T09:34:12.456Z,20.7
2017-06-14T09:35:31.127Z,20.6
2017-06-14T09:36:49.791Z,20.6
2017-06-14T09:38:08.489Z,20.6
2017-06-14T09:39:27.164Z,20.6
2017-06-14T09:40:45.851Z,20.6
2017-06-14T09:42:04.565Z,20.7
2017-06-14T09:43:23.274Z,20.7
2017-06-14T09:44:41.974Z,20.6
2017-06-14T09:46:00.676Z,20.8
2017-06-14T09:47:19.396Z,20.8
2017-06-14T09:48:38.075Z,20.9
2017-06-14T09:49:56.819Z,20.8
2017-06-14T09:51:15.488Z,20.7
2017-06-14T09:52:34.189Z,20.5
2017-06-14T09:53:52.863Z,20.4
2017-06-14T09:55:11.575Z,20.4
2017-06-14T09:56:30.294Z,20.5
2017-06-14T09:57:48.994Z,20.6
2017-06-14T09:59:07.691Z,20.5
2017-06-14T10:00:26.421Z,20.5
2017-06-14T10:01:45.098Z,20.4
2017-06-14T10:03:03.808Z,20.4
2017-06-14T10:04:22.494Z,20.2
2017-06-14T10:05:41.179Z,20.1
2017-06-14T10:06:59.891Z,20.2
2017-06-14T10:08:18.569Z,20.3
2017-06-14T10:09:37.333Z,20.3
2017-06-14T10:10:56.004Z,20.3
2017-06-14T10:12:14.671Z,20.1
2017-06-14T10:13:33.364Z,20
2017-06-14T10:14:52.037Z,20.1
2017-06-14T10:16:10.710Z,20.3
2017-06-14T10:17:29.384Z,20.2
2017-06-14T10:18:48.054Z,20.2
2017-06-14T10:20:06.750Z,20.3
2017-06-14T10:21:25.490Z,20.3
2017-06-14T10:22:44.211Z,20.2
2017-06-14T10:24:02.877Z,20.1
2017-06-14T10:25:21.598Z,19.9
2017-06-14T10:26:40.324Z,19.8
2017-06-14T10:27:59.032Z,20
2017-06-14T10:29:17.704Z,20.2
2017-06-14T10:30:36.394Z,20.3
2017-06-14T10:31:55.090Z,20.2
2017-06-14T10:33:13.808Z,20.3
2017-06-14T10:34:32.521Z,20.2
2017-06-14T10:35:51.224Z,20.3
2017-06-14T10:37:09.919Z,20.4
2017-06-14T10:38:28.583Z,20.3
2017-06-14T10:39:47.308Z,20.3
2017-06-14T10:41:06.007Z,20.2
2017-06-14T10:42:24.677Z,20.1
2017-06-14T10:43:43.350Z,20.1
2017-06-14T10:45:02.063Z,20.3
2017-06-14T10:46:20.786Z,20.5
2017-06-14T10:47:39.499Z,20.7
2017-06-14T10:48:58.165Z,21
2017-06-14T10:50:16.866Z,21.1
2017-06-14T10:51:35.596Z,21.2
2017-06-14T10:52:54.282Z,21.3
2017-06-14T10:54:12.954Z,21.3
2017-06-14T10:55:31.654Z,21.2
2017-06-14T10:56:50.335Z,21.1
2017-06-14T10:58:09.029Z,21.1
2017-06-14T10:59:27.703Z,21.1
2017-06-14T11:00:46.380Z,21.3
2017-06-14T11:02:05.077Z,21.4
2017-06-14T11:03:23.761Z,21.5
2017-06-14T11:04:42.448Z,21.5
2017-06-14T11:06:01.112Z,21.4
2017-06-14T11:07:19.790Z,21.3
2017-06-14T11:08:38.508Z,21.2
2017-06-14T11:09:57.172Z,21.3
2017-06-14T11:11:15.837Z,21.5
2017-06-14T11:12:34.589Z,21.8
2017-06-14T11:13:53.311Z,22
2017-06-14T11:15:12.021Z,22.2
2017-06-14T11:16:30.689Z,22.3
2017-06-14T11:17:49.383Z,22.3
2017-06-14T11:19:08.054Z,22.2
2017-06-14T11:20:26.726Z,22.2
2017-06-14T11:21:45.396Z,22.2
2017-06-14T11:23:04.102Z,22
2017-06-14T11:24:22.796Z,22.1
2017-06-14T11:25:41.469Z,22.3
2017-06-14T11:27:00.138Z,22.4
2017-06-14T11:28:18.844Z,22.5
2017-06-14T11:29:37.566Z,22.6
2017-06-14T11:30:56.236Z,22.7
2017-06-14T11:32:14.902Z,22.8
2017-06-14T11:33:33.600Z,22.9
2017-06-14T11:34:52.321Z,22.9
2017-06-14T11:36:10.995Z,22.9
2017-06-14T11:37:29.723Z,22.9
2017-06-14T11:38:48.434Z,22.8
2017-06-14T11:40:07.132Z,22.8
2017-06-14T11:41:25.826Z,22.9
2017-06-14T11:42:44.509Z,22.8
2017-06-14T11:44:03.187Z,22.8
2017-06-14T11:45:21.858Z,22.8
2017-06-14T11:46:40.568Z,22.8
2017-06-14T11:47:59.243Z,22.7
2017-06-14T11:49:17.985Z,22.6
2017-06-14T11:50:36.696Z,22.8
2017-06-14T11:51:55.365Z,23.3
2017-06-14T11:53:14.067Z,24.1
2017-06-14T11:54:32.742Z,24.9
2017-06-14T11:55:51.433Z,25.8
2017-06-14T11:57:10.161Z,28.1
2017-06-14T11:58:28.849Z,33.2
2017-06-14T11:59:47.575Z,34.7
2017-06-14T12:01:06.249Z,35.1
2017-06-14T12:02:24.922Z,35.4
2017-06-14T12:03:43.593Z,35.7
2017-06-14T12:05:02.334Z,35.8
2017-06-14T12:06:21.003Z,35.9
2017-06-14T12:07:39.705Z,36.1
2017-06-14T12:08:58.376Z,36.2
2017-06-14T12:10:17.063Z,36.3
2017-06-14T12:11:35.763Z,36.3
2017-06-14T12:12:54.424Z,36.3
2017-06-14T12:14:13.134Z,36.4
2017-06-14T12:15:31.823Z,36.6
2017-06-14T12:16:50.536Z,36.6
2017-06-14T12:18:09.205Z,36.6
2017-06-14T12:19:27.894Z,36.7
2017-06-14T12:20:46.622Z,36.7
2017-06-14T12:22:05.323Z,36.8
2017-06-14T12:23:24.014Z,36.8
2017-06-14T12:24:42.726Z,36.9
2017-06-14T12:26:01.461Z,36.9
2017-06-14T12:27:20.168Z,37
2017-06-14T12:28:38.876Z,37
2017-06-14T12:29:57.563Z,36.8
2017-06-14T12:31:16.258Z,36.7
2017-06-14T12:32:34.978Z,36.7
2017-06-14T12:33:53.646Z,36.8
2017-06-14T12:35:12.398Z,36.9
2017-06-14T12:36:31.071Z,36.9
2017-06-14T12:37:49.738Z,36.9
2017-06-14T12:39:08.406Z,37
2017-06-14T12:40:27.074Z,37.1
2017-06-14T12:41:45.768Z,37
2017-06-14T12:43:04.453Z,37
2017-06-14T12:44:23.125Z,37
2017-06-14T12:45:41.818Z,37
2017-06-14T12:47:00.491Z,36.9
2017-06-14T12:48:19.174Z,37.1
2017-06-14T12:49:37.839Z,37.1
2017-06-14T12:50:56.559Z,37.1
2017-06-14T12:52:15.257Z,37.1
2017-06-14T12:53:33.960Z,37.1
2017-06-14T12:54:52.684Z,37.2
2017-06-14T12:56:11.349Z,37.1
2017-06-14T12:57:30.030Z,37
2017-06-14T12:58:48.727Z,37
2017-06-14T13:00:07.420Z,37.1
2017-06-14T13:01:26.117Z,37.1
2017-06-14T13:02:44.814Z,37.2
2017-06-14T13:04:03.484Z,37.3
2017-06-14T13:05:22.150Z,37.3
2017-06-14T13:06:40.828Z,37.3
2017-06-14T13:07:59.510Z,37.4
2017-06-14T13:09:18.182Z,37.3
2017-06-14T13:10:36.899Z,37.4
2017-06-14T13:11:55.573Z,37.3
2017-06-14T13:13:14.287Z,37.3
2017-06-14T13:14:32.978Z,37.4
2017-06-14T13:15:51.664Z,37.3
2017-06-14T13:17:10.387Z,37.4
2017-06-14T13:18:29.108Z,37.4
2017-06-14T13:19:47.783Z,37.3
2017-06-14T13:21:06.480Z,37.3
2017-06-14T13:22:25.167Z,37.3
2017-06-14T13:23:43.900Z,37.4
2017-06-14T13:25:02.568Z,37.4
2017-06-14T13:26:21.273Z,37.3
2017-06-14T13:27:39.951Z,37.3
2017-06-14T13:28:58.683Z,37.3
2017-06-14T13:30:17.409Z,37.3
2017-06-14T13:31:36.122Z,37.2
2017-06-14T13:32:54.851Z,37.2
2017-06-14T13:34:13.585Z,37.2
2017-06-14T13:35:32.312Z,37
2017-06-14T13:36:50.985Z,37.1
2017-06-14T13:38:09.655Z,37.2
2017-06-14T13:39:28.403Z,37.3
2017-06-14T13:40:47.128Z,37.3
2017-06-14T13:42:05.799Z,37.3
2017-06-14T13:43:24.474Z,37.4
2017-06-14T13:44:43.228Z,37.4
2017-06-14T13:46:01.946Z,37.2
2017-06-14T13:47:20.618Z,37.2
2017-06-14T13:48:39.291Z,37.3
2017-06-14T13:49:57.985Z,37.4
2017-06-14T13:51:16.699Z,37.4
2017-06-14T13:52:35.372Z,37.3
2017-06-14T13:53:54.076Z,37.3
2017-06-14T13:55:12.776Z,37.3
2017-06-14T13:56:31.471Z,37.3
2017-06-14T13:57:50.144Z,37.3
2017-06-14T13:59:08.830Z,37.4
2017-06-14T14:00:27.510Z,37.4
2017-06-14T14:01:46.208Z,37.5
2017-06-14T14:03:04.915Z,37.6
2017-06-14T14:04:23.585Z,37.6
2017-06-14T14:05:42.339Z,37.6
2017-06-14T14:07:01.008Z,37.5
2017-06-14T14:08:19.677Z,37.5
2017-06-14T14:09:38.361Z,37.5
2017-06-14T14:10:57.062Z,37.4
2017-06-14T14:12:15.735Z,37.3
2017-06-14T14:13:34.410Z,37.4
2017-06-14T14:14:53.077Z,37.4
2017-06-14T14:16:11.779Z,37.4
2017-06-14T14:17:30.468Z,37.5
2017-06-14T14:18:49.164Z,37.4
2017-06-14T14:20:07.875Z,37.3
2017-06-14T14:21:26.596Z,37.2
2017-06-14T14:22:45.326Z,37.3
2017-06-14T14:24:04.051Z,37.3
2017-06-14T14:25:22.733Z,37.4
2017-06-14T14:26:41.413Z,37.3
2017-06-14T14:28:00.087Z,37.3
2017-06-14T14:29:18.793Z,37.4
2017-06-14T14:30:37.467Z,37.4
2017-06-14T14:31:56.168Z,37.4
2017-06-14T14:33:14.843Z,37.2
2017-06-14T14:34:33.565Z,36.7
2017-06-14T14:35:52.252Z,36.4
2017-06-14T14:37:10.928Z,36
2017-06-14T14:38:29.600Z,35.5
2017-06-14T14:39:48.276Z,35.1
2017-06-14T14:41:06.950Z,34.9
2017-06-14T14:42:25.658Z,34.8
2017-06-14T14:43:44.379Z,34.6
2017-06-14T14:45:03.099Z,34.4
2017-06-14T14:46:21.769Z,34.3
2017-06-14T14:47:40.465Z,34.1
2017-06-14T14:48:59.157Z,34.1
2017-06-14T14:50:17.823Z,33.6
2017-06-14T14:51:36.549Z,32.8
2017-06-14T14:52:55.259Z,31.7
2017-06-14T14:54:13.958Z,30.6
2017-06-14T14:55:32.628Z,30.1
2017-06-14T14:56:51.338Z,29.4
2017-06-14T14:58:10.021Z,29.1
2017-06-14T14:59:28.746Z,29.1
2017-06-14T15:00:47.437Z,28.9
2017-06-14T15:02:06.154Z,28.9
2017-06-14T15:03:24.875Z,28.8
2017-06-14T15:04:43.580Z,28.8
2017-06-14T15:06:02.305Z,28.8
2017-06-14T15:07:21.023Z,28.9
2017-06-14T15:08:39.708Z,28.7
2017-06-14T15:09:58.377Z,28.4
2017-06-14T15:11:17.051Z,28.4
2017-06-14T15:12:35.716Z,28.5
2017-06-14T15:13:54.462Z,28.5
2017-06-14T15:15:13.130Z,28.6
2017-06-14T15:16:31.795Z,28.5
2017-06-14T15:17:50.483Z,28.3
2017-06-14T15:19:09.191Z,28
2017-06-14T15:20:27.915Z,27.7
2017-06-14T15:21:46.590Z,27.4
2017-06-14T15:23:05.317Z,27.4
2017-06-14T15:24:24.072Z,27.3
2017-06-14T15:25:42.745Z,27.3
2017-06-14T15:27:01.413Z,27.2
2017-06-14T15:28:20.087Z,26.9
2017-06-14T15:29:38.793Z,26.7
2017-06-14T15:30:57.466Z,26.7
2017-06-14T15:32:16.190Z,26.8
2017-06-14T15:33:34.864Z,27
2017-06-14T15:34:53.585Z,27.2
2017-06-14T15:36:12.316Z,27.3
2017-06-14T15:37:31.001Z,27.9
2017-06-14T15:38:49.670Z,28.8
2017-06-14T15:40:08.346Z,29.1
2017-06-14T15:41:27.018Z,28.9
2017-06-14T15:42:45.697Z,28.5
2017-06-14T15:44:04.370Z,28.6
2017-06-14T15:45:23.120Z,30.5
2017-06-14T15:46:41.792Z,33.4
2017-06-14T15:48:00.477Z,33.7
2017-06-14T15:49:19.189Z,32.3
2017-06-14T15:50:37.914Z,30.8
2017-06-14T15:51:56.654Z,29.7
2017-06-14T15:53:15.381Z,28.9
2017-06-14T15:54:34.074Z,29.3
2017-06-14T15:55:52.759Z,30.3
2017-06-14T15:57:11.474Z,32.6
2017-06-14T15:58:30.159Z,34.6
2017-06-14T15:59:48.902Z,35
2017-06-14T16:01:07.598Z,35.2
2017-06-14T16:02:26.265Z,35.5
2017-06-14T16:03:44.943Z,35.6
2017-06-14T16:05:03.609Z,35.7
2017-06-14T16:06:22.357Z,35.8
2017-06-14T16:07:41.052Z,35.9
2017-06-14T16:08:59.718Z,35.7
2017-06-14T16:10:18.441Z,35.6
2017-06-14T16:11:37.160Z,35.6
2017-06-14T16:12:55.837Z,35.8
2017-06-14T16:14:14.561Z,35.9
2017-06-14T16:15:33.232Z,35.9
2017-06-14T16:16:51.966Z,36
2017-06-14T16:18:10.635Z,35.7
2017-06-14T16:19:29.307Z,35.4
2017-06-14T16:20:48.036Z,34.9
2017-06-14T16:22:06.729Z,34.5
2017-06-14T16:23:25.460Z,33.8
2017-06-14T16:24:44.146Z,32.9
2017-06-14T16:26:02.813Z,34.6
2017-06-14T16:27:21.495Z,34.4
2017-06-14T16:28:40.161Z,34.3
2017-06-14T16:29:58.912Z,34.4
2017-06-14T16:31:17.603Z,34.5
2017-06-14T16:32:36.335Z,34.6
2017-06-14T16:33:55.048Z,34.5
2017-06-14T16:35:13.723Z,34.2
2017-06-14T16:36:32.419Z,34.3
2017-06-14T16:37:51.092Z,33.8
2017-06-14T16:39:09.799Z,32.8
2017-06-14T16:40:28.466Z,32.2
2017-06-14T16:41:47.134Z,31.4
2017-06-14T16:43:05.830Z,32.1
2017-06-14T16:44:24.547Z,34.3
2017-06-14T16:45:43.220Z,34.4
2017-06-14T16:47:01.927Z,34.3
2017-06-14T16:48:20.649Z,34.4
2017-06-14T16:49:39.328Z,34.8
2017-06-14T16:50:58.010Z,34.9
2017-06-14T16:52:16.712Z,34.9
2017-06-14T16:53:35.455Z,34.7
2017-06-14T16:54:54.147Z,34.6
2017-06-14T16:56:12.815Z,34.7
2017-06-14T16:57:31.488Z,34.5
2017-06-14T16:58:50.181Z,34.3
2017-06-14T17:00:08.881Z,33.4
2017-06-14T17:01:27.600Z,33.3
2017-06-14T17:02:46.276Z,33.9
2017-06-14T17:04:04.980Z,34.4
2017-06-14T17:05:23.654Z,34.5
2017-06-14T17:06:42.395Z,34.3
2017-06-14T17:08:01.061Z,34.6
2017-06-14T17:09:19.746Z,34.8
2017-06-14T17:10:38.445Z,34.8
2017-06-14T17:11:57.118Z,34.7
2017-06-14T17:13:15.834Z,34.7
2017-06-14T17:14:34.580Z,34.6
2017-06-14T17:15:53.304Z,34.4
2017-06-14T17:17:11.976Z,34.4
2017-06-14T17:18:30.642Z,33.5
2017-06-14T17:19:49.320Z,32
2017-06-14T17:21:07.986Z,32.4
2017-06-14T17:22:26.716Z,31.1
2017-06-14T17:23:45.433Z,29.9
2017-06-14T17:25:04.166Z,32.8
2017-06-14T17:26:22.850Z,33.1
2017-06-14T17:27:41.566Z,33.2
2017-06-14T17:29:00.245Z,33.9
2017-06-14T17:30:19.004Z,32.2
2017-06-14T17:31:37.674Z,32.3
2017-06-14T17:32:56.373Z,31.9
2017-06-14T17:34:15.048Z,30.2
2017-06-14T17:35:33.726Z,28.7
2017-06-14T17:36:52.485Z,27.6
2017-06-14T17:38:11.208Z,26.8
2017-06-14T17:39:29.879Z,26.1
2017-06-14T17:40:48.612Z,25.4
2017-06-14T17:42:07.360Z,25.2
2017-06-14T17:43:26.081Z,25.1
2017-06-14T17:44:44.750Z,24.9